sensor_id;sensor_type;location;lat;lon;timestamp;temperature;humidity
23633;DHT22;11993;48.748;9.166;2022-10-23T00:03:51;13.90;81.70
23633;DHT22;11993;48.748;9.166;2022-10-23T00:06:18;13.70;82.00
23633;DHT22;11993;48.748;9.166;2022-10-23T00:08:45;13.70;82.00
23633;DHT22;11993;48.748;9.166;2022-10-23T00:11:13;13.60;82.20
23633;DHT22;11993;48.748;9.166;2022-10-23T00:13:39;13.60;82.30
23633;DHT22;11993;48.748;9.166;2022-10-23T00:16:05;13.60;82.50
23633;DHT22;11993;48.748;9.166;2022-10-23T00:18:31;13.60;82.50
23633;DHT22;11993;48.748;9.166;2022-10-23T00:20:56;13.50;82.80
23633;DHT22;11993;48.748;9.166;2022-10-23T00:23:22;13.60;82.80
23633;DHT22;11993;48.748;9.166;2022-10-23T00:25:48;13.60;82.70
23633;DHT22;11993;48.748;9.166;2022-10-23T00:28:14;13.50;82.80
23633;DHT22;11993;48.748;9.166;2022-10-23T00:30:39;13.60;82.60
23633;DHT22;11993;48.748;9.166;2022-10-23T00:33:05;13.50;82.70
23633;DHT22;11993;48.748;9.166;2022-10-23T00:35:31;13.60;82.50
23633;DHT22;11993;48.748;9.166;2022-10-23T00:37:56;13.50;82.60
23633;DHT22;11993;48.748;9.166;2022-10-23T00:40:22;13.20;83.30
23633;DHT22;11993;48.748;9.166;2022-10-23T00:42:47;13.30;83.30
23633;DHT22;11993;48.748;9.166;2022-10-23T00:45:20;13.20;83.30
23633;DHT22;11993;48.748;9.166;2022-10-23T00:47:47;13.10;83.60
23633;DHT22;11993;48.748;9.166;2022-10-23T00:50:13;13.10;83.50
23633;DHT22;11993;48.748;9.166;2022-10-23T00:52:44;13.20;83.30
23633;DHT22;11993;48.748;9.166;2022-10-23T00:55:10;13.10;83.50
23633;DHT22;11993;48.748;9.166;2022-10-23T00:57:38;13.00;83.90
23633;DHT22;11993;48.748;9.166;2022-10-23T01:00:06;12.80;84.20
23633;DHT22;11993;48.748;9.166;2022-10-23T01:02:31;12.80;84.50
23633;DHT22;11993;48.748;9.166;2022-10-23T01:04:57;12.80;84.50
23633;DHT22;11993;48.748;9.166;2022-10-23T01:07:47;12.60;84.80
23633;DHT22;11993;48.748;9.166;2022-10-23T01:10:22;12.70;84.80
23633;DHT22;11993;48.748;9.166;2022-10-23T01:21:26;12.70;84.40
23633;DHT22;11993;48.748;9.166;2022-10-23T01:29:27;12.70;83.70
23633;DHT22;11993;48.748;9.166;2022-10-23T01:32:10;12.80;83.80
23633;DHT22;11993;48.748;9.166;2022-10-23T01:34:50;12.80;83.60
23633;DHT22;11993;48.748;9.166;2022-10-23T01:37:22;12.70;83.60
23633;DHT22;11993;48.748;9.166;2022-10-23T01:39:52;12.80;83.40
23633;DHT22;11993;48.748;9.166;2022-10-23T01:42:24;12.80;83.30
23633;DHT22;11993;48.748;9.166;2022-10-23T01:45:08;12.80;83.40
23633;DHT22;11993;48.748;9.166;2022-10-23T01:47:37;12.90;83.00
23633;DHT22;11993;48.748;9.166;2022-10-23T01:50:05;12.90;82.60
23633;DHT22;11993;48.748;9.166;2022-10-23T01:52:32;13.10;82.40
23633;DHT22;11993;48.748;9.166;2022-10-23T01:54:59;13.10;82.20
23633;DHT22;11993;48.748;9.166;2022-10-23T01:57:28;13.10;82.10
23633;DHT22;11993;48.748;9.166;2022-10-23T02:00:16;13.00;82.20
23633;DHT22;11993;48.748;9.166;2022-10-23T02:02:42;13.10;82.10
23633;DHT22;11993;48.748;9.166;2022-10-23T02:05:24;13.10;82.10
23633;DHT22;11993;48.748;9.166;2022-10-23T02:07:51;13.10;81.90
23633;DHT22;11993;48.748;9.166;2022-10-23T02:10:18;13.20;81.50
23633;DHT22;11993;48.748;9.166;2022-10-23T02:12:54;13.20;81.50
23633;DHT22;11993;48.748;9.166;2022-10-23T02:15:51;13.10;81.70
23633;DHT22;11993;48.748;9.166;2022-10-23T02:18:29;13.10;82.00
23633;DHT22;11993;48.748;9.166;2022-10-23T02:21:26;13.10;82.40
23633;DHT22;11993;48.748;9.166;2022-10-23T02:24:00;13.10;82.20
23633;DHT22;11993;48.748;9.166;2022-10-23T02:26:31;13.10;82.40
23633;DHT22;11993;48.748;9.166;2022-10-23T02:29:09;13.10;82.60
23633;DHT22;11993;48.748;9.166;2022-10-23T02:31:37;13.10;82.50
23633;DHT22;11993;48.748;9.166;2022-10-23T02:34:03;13.10;82.70
23633;DHT22;11993;48.748;9.166;2022-10-23T02:36:29;13.10;82.50
23633;DHT22;11993;48.748;9.166;2022-10-23T02:38:54;13.10;82.60
23633;DHT22;11993;48.748;9.166;2022-10-23T02:44:12;13.10;82.50
23633;DHT22;11993;48.748;9.166;2022-10-23T02:49:44;13.00;83.00
23633;DHT22;11993;48.748;9.166;2022-10-23T02:52:27;13.00;83.10
23633;DHT22;11993;48.748;9.166;2022-10-23T02:57:38;12.90;83.10
23633;DHT22;11993;48.748;9.166;2022-10-23T03:00:11;13.00;83.10
23633;DHT22;11993;48.748;9.166;2022-10-23T03:02:45;13.00;83.00
23633;DHT22;11993;48.748;9.166;2022-10-23T03:05:18;13.00;82.80
23633;DHT22;11993;48.748;9.166;2022-10-23T03:07:45;13.00;82.80
23633;DHT22;11993;48.748;9.166;2022-10-23T03:10:11;13.10;82.80
23633;DHT22;11993;48.748;9.166;2022-10-23T03:12:37;13.00;83.00
23633;DHT22;11993;48.748;9.166;2022-10-23T03:15:04;13.00;82.80
23633;DHT22;11993;48.748;9.166;2022-10-23T03:17:29;13.00;82.80
23633;DHT22;11993;48.748;9.166;2022-10-23T03:19:55;13.00;82.90
23633;DHT22;11993;48.748;9.166;2022-10-23T03:22:20;13.00;82.70
23633;DHT22;11993;48.748;9.166;2022-10-23T03:24:46;12.90;82.80
23633;DHT22;11993;48.748;9.166;2022-10-23T03:27:11;12.90;82.70
23633;DHT22;11993;48.748;9.166;2022-10-23T03:29:37;12.90;82.70
23633;DHT22;11993;48.748;9.166;2022-10-23T03:32:03;12.80;83.10
23633;DHT22;11993;48.748;9.166;2022-10-23T03:34:29;12.90;82.90
23633;DHT22;11993;48.748;9.166;2022-10-23T03:36:54;12.90;82.90
23633;DHT22;11993;48.748;9.166;2022-10-23T03:39:20;12.90;83.00
23633;DHT22;11993;48.748;9.166;2022-10-23T03:41:46;12.90;83.00
23633;DHT22;11993;48.748;9.166;2022-10-23T03:44:11;12.80;83.00
23633;DHT22;11993;48.748;9.166;2022-10-23T03:46:37;12.70;83.30
23633;DHT22;11993;48.748;9.166;2022-10-23T03:49:03;12.70;83.50
23633;DHT22;11993;48.748;9.166;2022-10-23T03:51:29;12.60;83.70
23633;DHT22;11993;48.748;9.166;2022-10-23T03:53:54;12.70;83.60
23633;DHT22;11993;48.748;9.166;2022-10-23T03:56:20;12.60;83.80
23633;DHT22;11993;48.748;9.166;2022-10-23T03:58:45;12.60;84.00
23633;DHT22;11993;48.748;9.166;2022-10-23T04:01:12;12.60;84.30
23633;DHT22;11993;48.748;9.166;2022-10-23T04:03:37;12.50;84.30
23633;DHT22;11993;48.748;9.166;2022-10-23T04:06:03;12.60;84.10
23633;DHT22;11993;48.748;9.166;2022-10-23T04:08:29;12.40;84.50
23633;DHT22;11993;48.748;9.166;2022-10-23T04:10:54;12.40;84.40
23633;DHT22;11993;48.748;9.166;2022-10-23T04:13:20;12.50;84.40
23633;DHT22;11993;48.748;9.166;2022-10-23T04:15:49;12.40;84.40
23633;DHT22;11993;48.748;9.166;2022-10-23T04:18:15;12.40;84.40
23633;DHT22;11993;48.748;9.166;2022-10-23T04:20:41;12.40;84.50
23633;DHT22;11993;48.748;9.166;2022-10-23T04:23:06;12.40;84.40
23633;DHT22;11993;48.748;9.166;2022-10-23T04:25:32;12.40;84.40
23633;DHT22;11993;48.748;9.166;2022-10-23T04:27:58;12.40;84.50
23633;DHT22;11993;48.748;9.166;2022-10-23T04:30:23;12.40;84.60
23633;DHT22;11993;48.748;9.166;2022-10-23T04:32:50;12.30;84.80
23633;DHT22;11993;48.748;9.166;2022-10-23T04:35:16;12.30;84.80
23633;DHT22;11993;48.748;9.166;2022-10-23T04:37:42;12.40;84.80
23633;DHT22;11993;48.748;9.166;2022-10-23T04:40:08;12.20;85.00
23633;DHT22;11993;48.748;9.166;2022-10-23T04:42:34;12.20;85.00
23633;DHT22;11993;48.748;9.166;2022-10-23T04:44:59;12.30;85.00
23633;DHT22;11993;48.748;9.166;2022-10-23T04:47:25;12.30;85.20
23633;DHT22;11993;48.748;9.166;2022-10-23T04:49:50;12.30;85.10
23633;DHT22;11993;48.748;9.166;2022-10-23T04:52:16;12.40;84.90
23633;DHT22;11993;48.748;9.166;2022-10-23T04:54:41;12.40;84.70
23633;DHT22;11993;48.748;9.166;2022-10-23T04:57:07;12.50;84.60
23633;DHT22;11993;48.748;9.166;2022-10-23T04:59:34;12.60;84.40
23633;DHT22;11993;48.748;9.166;2022-10-23T05:01:59;12.60;84.50
23633;DHT22;11993;48.748;9.166;2022-10-23T05:04:25;12.50;84.50
23633;DHT22;11993;48.748;9.166;2022-10-23T05:06:50;12.60;84.20
23633;DHT22;11993;48.748;9.166;2022-10-23T05:09:16;12.60;84.00
23633;DHT22;11993;48.748;9.166;2022-10-23T05:11:41;12.60;84.10
23633;DHT22;11993;48.748;9.166;2022-10-23T05:14:07;12.60;84.00
23633;DHT22;11993;48.748;9.166;2022-10-23T05:16:42;12.60;84.00
23633;DHT22;11993;48.748;9.166;2022-10-23T05:19:10;12.70;83.70
23633;DHT22;11993;48.748;9.166;2022-10-23T05:21:39;12.70;83.70
23633;DHT22;11993;48.748;9.166;2022-10-23T05:24:05;12.80;83.50
23633;DHT22;11993;48.748;9.166;2022-10-23T05:26:31;12.90;83.30
23633;DHT22;11993;48.748;9.166;2022-10-23T05:28:57;12.90;83.00
23633;DHT22;11993;48.748;9.166;2022-10-23T05:31:23;13.00;82.90
23633;DHT22;11993;48.748;9.166;2022-10-23T05:33:51;13.00;82.80
23633;DHT22;11993;48.748;9.166;2022-10-23T05:36:17;13.00;82.80
23633;DHT22;11993;48.748;9.166;2022-10-23T05:38:43;13.00;82.70
23633;DHT22;11993;48.748;9.166;2022-10-23T05:41:10;12.90;82.90
23633;DHT22;11993;48.748;9.166;2022-10-23T05:43:35;12.90;83.10
23633;DHT22;11993;48.748;9.166;2022-10-23T05:46:03;12.90;83.10
23633;DHT22;11993;48.748;9.166;2022-10-23T05:48:30;13.10;82.60
23633;DHT22;11993;48.748;9.166;2022-10-23T05:51:02;13.10;82.40
23633;DHT22;11993;48.748;9.166;2022-10-23T05:53:27;13.10;82.50
23633;DHT22;11993;48.748;9.166;2022-10-23T05:55:53;12.90;82.70
23633;DHT22;11993;48.748;9.166;2022-10-23T05:58:18;12.90;82.70
23633;DHT22;11993;48.748;9.166;2022-10-23T06:00:44;13.00;82.50
23633;DHT22;11993;48.748;9.166;2022-10-23T06:03:09;13.10;82.00
23633;DHT22;11993;48.748;9.166;2022-10-23T06:05:35;13.10;81.60
23633;DHT22;11993;48.748;9.166;2022-10-23T06:08:00;13.10;81.70
23633;DHT22;11993;48.748;9.166;2022-10-23T06:10:26;13.10;81.40
23633;DHT22;11993;48.748;9.166;2022-10-23T06:12:52;13.10;81.20
23633;DHT22;11993;48.748;9.166;2022-10-23T06:15:18;13.20;81.20
23633;DHT22;11993;48.748;9.166;2022-10-23T06:17:43;13.20;81.00
23633;DHT22;11993;48.748;9.166;2022-10-23T06:20:09;13.20;81.00
23633;DHT22;11993;48.748;9.166;2022-10-23T06:22:35;13.30;81.00
23633;DHT22;11993;48.748;9.166;2022-10-23T06:25:00;13.20;80.90
23633;DHT22;11993;48.748;9.166;2022-10-23T06:27:26;13.30;80.80
23633;DHT22;11993;48.748;9.166;2022-10-23T06:29:51;13.30;80.80
23633;DHT22;11993;48.748;9.166;2022-10-23T06:32:17;13.30;80.70
23633;DHT22;11993;48.748;9.166;2022-10-23T06:34:43;13.20;80.90
23633;DHT22;11993;48.748;9.166;2022-10-23T06:37:08;13.20;80.90
23633;DHT22;11993;48.748;9.166;2022-10-23T06:39:34;13.20;80.80
23633;DHT22;11993;48.748;9.166;2022-10-23T06:42:01;13.30;80.60
23633;DHT22;11993;48.748;9.166;2022-10-23T06:44:27;13.30;80.50
23633;DHT22;11993;48.748;9.166;2022-10-23T06:46:52;13.40;80.60
23633;DHT22;11993;48.748;9.166;2022-10-23T06:49:18;13.40;80.60
23633;DHT22;11993;48.748;9.166;2022-10-23T06:51:44;13.40;80.70
23633;DHT22;11993;48.748;9.166;2022-10-23T06:54:10;13.40;80.80
23633;DHT22;11993;48.748;9.166;2022-10-23T06:56:36;13.50;80.70
23633;DHT22;11993;48.748;9.166;2022-10-23T06:59:02;13.40;80.60
23633;DHT22;11993;48.748;9.166;2022-10-23T07:01:28;13.20;81.50
23633;DHT22;11993;48.748;9.166;2022-10-23T07:03:53;13.20;81.30
23633;DHT22;11993;48.748;9.166;2022-10-23T07:06:19;13.10;81.90
23633;DHT22;11993;48.748;9.166;2022-10-23T07:08:44;13.20;81.90
23633;DHT22;11993;48.748;9.166;2022-10-23T07:11:11;13.30;81.70
23633;DHT22;11993;48.748;9.166;2022-10-23T07:13:37;13.20;81.90
23633;DHT22;11993;48.748;9.166;2022-10-23T07:16:16;13.20;82.00
23633;DHT22;11993;48.748;9.166;2022-10-23T07:18:42;13.20;82.00
23633;DHT22;11993;48.748;9.166;2022-10-23T07:21:08;13.30;81.70
23633;DHT22;11993;48.748;9.166;2022-10-23T07:23:34;13.40;81.50
23633;DHT22;11993;48.748;9.166;2022-10-23T07:26:05;13.50;81.30
23633;DHT22;11993;48.748;9.166;2022-10-23T07:28:31;13.60;81.00
23633;DHT22;11993;48.748;9.166;2022-10-23T07:30:58;13.60;80.80
23633;DHT22;11993;48.748;9.166;2022-10-23T07:33:24;13.60;80.70
23633;DHT22;11993;48.748;9.166;2022-10-23T07:35:50;13.80;80.10
23633;DHT22;11993;48.748;9.166;2022-10-23T07:38:15;13.90;79.80
23633;DHT22;11993;48.748;9.166;2022-10-23T07:40:42;13.90;80.10
23633;DHT22;11993;48.748;9.166;2022-10-23T07:43:08;14.10;79.50
23633;DHT22;11993;48.748;9.166;2022-10-23T07:45:34;14.10;79.10
23633;DHT22;11993;48.748;9.166;2022-10-23T07:47:59;14.30;78.40
23633;DHT22;11993;48.748;9.166;2022-10-23T07:50:25;14.40;78.00
23633;DHT22;11993;48.748;9.166;2022-10-23T07:52:50;14.40;78.00
23633;DHT22;11993;48.748;9.166;2022-10-23T07:55:16;14.50;77.50
23633;DHT22;11993;48.748;9.166;2022-10-23T07:57:42;14.60;77.10
23633;DHT22;11993;48.748;9.166;2022-10-23T08:00:09;14.60;76.40
23633;DHT22;11993;48.748;9.166;2022-10-23T08:02:35;14.80;76.60
23633;DHT22;11993;48.748;9.166;2022-10-23T08:05:01;15.00;76.50
23633;DHT22;11993;48.748;9.166;2022-10-23T08:07:26;15.10;75.90
23633;DHT22;11993;48.748;9.166;2022-10-23T08:09:52;15.20;75.30
23633;DHT22;11993;48.748;9.166;2022-10-23T08:12:17;15.30;75.50
23633;DHT22;11993;48.748;9.166;2022-10-23T08:14:43;15.50;73.80
23633;DHT22;11993;48.748;9.166;2022-10-23T08:17:08;15.70;73.40
23633;DHT22;11993;48.748;9.166;2022-10-23T08:19:35;16.10;72.70
23633;DHT22;11993;48.748;9.166;2022-10-23T08:22:01;16.20;71.60
23633;DHT22;11993;48.748;9.166;2022-10-23T08:24:26;16.40;71.00
23633;DHT22;11993;48.748;9.166;2022-10-23T08:26:52;16.60;70.10
23633;DHT22;11993;48.748;9.166;2022-10-23T08:29:17;17.00;69.00
23633;DHT22;11993;48.748;9.166;2022-10-23T08:31:43;17.00;68.10
23633;DHT22;11993;48.748;9.166;2022-10-23T08:34:09;17.00;67.50
23633;DHT22;11993;48.748;9.166;2022-10-23T08:36:34;17.10;66.40
23633;DHT22;11993;48.748;9.166;2022-10-23T08:39:01;17.30;66.70
23633;DHT22;11993;48.748;9.166;2022-10-23T08:41:36;17.20;66.60
23633;DHT22;11993;48.748;9.166;2022-10-23T08:47:18;17.20;66.80
23633;DHT22;11993;48.748;9.166;2022-10-23T08:50:01;17.20;65.30
23633;DHT22;11993;48.748;9.166;2022-10-23T08:52:42;17.10;66.10
23633;DHT22;11993;48.748;9.166;2022-10-23T08:55:25;17.10;66.30
23633;DHT22;11993;48.748;9.166;2022-10-23T09:00:20;17.40;66.90
23633;DHT22;11993;48.748;9.166;2022-10-23T09:02:49;17.50;67.20
23633;DHT22;11993;48.748;9.166;2022-10-23T09:11:03;18.40;61.80
23633;DHT22;11993;48.748;9.166;2022-10-23T09:13:59;18.60;61.40
23633;DHT22;11993;48.748;9.166;2022-10-23T09:16:48;18.90;60.60
23633;DHT22;11993;48.748;9.166;2022-10-23T09:19:21;18.90;60.10
23633;DHT22;11993;48.748;9.166;2022-10-23T09:21:50;19.10;59.20
23633;DHT22;11993;48.748;9.166;2022-10-23T09:24:18;19.40;58.10
23633;DHT22;11993;48.748;9.166;2022-10-23T09:26:49;19.10;60.00
23633;DHT22;11993;48.748;9.166;2022-10-23T09:29:32;19.20;58.70
23633;DHT22;11993;48.748;9.166;2022-10-23T09:32:02;19.60;57.40
23633;DHT22;11993;48.748;9.166;2022-10-23T09:34:31;19.90;57.90
23633;DHT22;11993;48.748;9.166;2022-10-23T09:37:03;20.60;56.30
23633;DHT22;11993;48.748;9.166;2022-10-23T09:39:32;20.70;55.50
23633;DHT22;11993;48.748;9.166;2022-10-23T09:41:59;21.10;55.80
23633;DHT22;11993;48.748;9.166;2022-10-23T09:44:31;21.10;53.50
23633;DHT22;11993;48.748;9.166;2022-10-23T09:49:33;21.50;51.80
23633;DHT22;11993;48.748;9.166;2022-10-23T09:54:44;21.10;52.60
23633;DHT22;11993;48.748;9.166;2022-10-23T09:57:36;21.30;52.80
23633;DHT22;11993;48.748;9.166;2022-10-23T10:00:18;21.60;50.70
23633;DHT22;11993;48.748;9.166;2022-10-23T10:05:29;21.80;49.40
23633;DHT22;11993;48.748;9.166;2022-10-23T10:08:01;21.70;49.40
23633;DHT22;11993;48.748;9.166;2022-10-23T10:10:33;21.50;50.30
23633;DHT22;11993;48.748;9.166;2022-10-23T10:13:17;21.80;50.70
23633;DHT22;11993;48.748;9.166;2022-10-23T10:15:52;21.60;50.50
23633;DHT22;11993;48.748;9.166;2022-10-23T10:18:25;21.60;50.50
23633;DHT22;11993;48.748;9.166;2022-10-23T10:21:15;21.70;50.60
23633;DHT22;11993;48.748;9.166;2022-10-23T10:23:48;21.40;51.30
23633;DHT22;11993;48.748;9.166;2022-10-23T10:29:21;21.10;52.80
23633;DHT22;11993;48.748;9.166;2022-10-23T10:34:52;21.90;52.60
23633;DHT22;11993;48.748;9.166;2022-10-23T10:37:49;21.80;52.30
23633;DHT22;11993;48.748;9.166;2022-10-23T10:48:50;22.70;50.70
23633;DHT22;11993;48.748;9.166;2022-10-23T10:54:26;22.20;50.60
23633;DHT22;11993;48.748;9.166;2022-10-23T10:56:52;21.40;51.90
23633;DHT22;11993;48.748;9.166;2022-10-23T10:59:22;21.00;53.50
23633;DHT22;11993;48.748;9.166;2022-10-23T11:04:31;21.10;53.60
23633;DHT22;11993;48.748;9.166;2022-10-23T11:07:04;21.10;53.80
23633;DHT22;11993;48.748;9.166;2022-10-23T11:09:31;21.30;53.70
23633;DHT22;11993;48.748;9.166;2022-10-23T11:11:56;21.60;53.30
23633;DHT22;11993;48.748;9.166;2022-10-23T11:14:25;21.10;54.00
23633;DHT22;11993;48.748;9.166;2022-10-23T11:17:10;20.90;55.30
23633;DHT22;11993;48.748;9.166;2022-10-23T11:22:56;20.90;55.50
23633;DHT22;11993;48.748;9.166;2022-10-23T11:30:43;20.60;56.00
23633;DHT22;11993;48.748;9.166;2022-10-23T11:33:28;20.70;55.80
23633;DHT22;11993;48.748;9.166;2022-10-23T11:36:04;20.60;56.90
23633;DHT22;11993;48.748;9.166;2022-10-23T11:38:34;20.60;57.60
23633;DHT22;11993;48.748;9.166;2022-10-23T11:41:15;20.60;59.10
23633;DHT22;11993;48.748;9.166;2022-10-23T11:43:53;20.50;61.30
23633;DHT22;11993;48.748;9.166;2022-10-23T11:48:50;20.40;60.60
23633;DHT22;11993;48.748;9.166;2022-10-23T11:53:50;20.60;60.80
23633;DHT22;11993;48.748;9.166;2022-10-23T11:58:55;20.60;62.10
23633;DHT22;11993;48.748;9.166;2022-10-23T12:01:38;20.90;61.80
23633;DHT22;11993;48.748;9.166;2022-10-23T12:06:55;20.90;61.60
23633;DHT22;11993;48.748;9.166;2022-10-23T12:17:00;21.20;60.50
23633;DHT22;11993;48.748;9.166;2022-10-23T12:19:28;21.20;60.30
23633;DHT22;11993;48.748;9.166;2022-10-23T12:21:58;21.40;60.40
23633;DHT22;11993;48.748;9.166;2022-10-23T12:27:28;21.30;61.20
23633;DHT22;11993;48.748;9.166;2022-10-23T12:30:16;21.50;61.00
23633;DHT22;11993;48.748;9.166;2022-10-23T12:38:26;21.50;60.50
23633;DHT22;11993;48.748;9.166;2022-10-23T12:40:55;21.70;59.60
23633;DHT22;11993;48.748;9.166;2022-10-23T12:43:31;21.60;59.20
23633;DHT22;11993;48.748;9.166;2022-10-23T12:46:28;21.90;59.10
23633;DHT22;11993;48.748;9.166;2022-10-23T12:48:55;22.20;57.90
23633;DHT22;11993;48.748;9.166;2022-10-23T12:51:28;22.70;56.60
23633;DHT22;11993;48.748;9.166;2022-10-23T12:53:54;23.20;55.50
23633;DHT22;11993;48.748;9.166;2022-10-23T12:56:20;23.70;53.20
23633;DHT22;11993;48.748;9.166;2022-10-23T12:58:52;23.90;50.70
23633;DHT22;11993;48.748;9.166;2022-10-23T13:01:36;24.10;50.80
23633;DHT22;11993;48.748;9.166;2022-10-23T13:04:33;24.30;50.80
23633;DHT22;11993;48.748;9.166;2022-10-23T13:07:00;25.30;49.20
23633;DHT22;11993;48.748;9.166;2022-10-23T13:09:37;25.90;47.30
23633;DHT22;11993;48.748;9.166;2022-10-23T13:12:05;26.10;47.10
23633;DHT22;11993;48.748;9.166;2022-10-23T13:14:37;26.40;46.50
23633;DHT22;11993;48.748;9.166;2022-10-23T13:17:07;26.80;44.90
23633;DHT22;11993;48.748;9.166;2022-10-23T13:19:33;27.20;44.10
23633;DHT22;11993;48.748;9.166;2022-10-23T13:22:00;27.50;43.80
23633;DHT22;11993;48.748;9.166;2022-10-23T13:24:29;27.60;42.80
23633;DHT22;11993;48.748;9.166;2022-10-23T13:26:56;27.70;42.30
23633;DHT22;11993;48.748;9.166;2022-10-23T13:29:31;27.30;43.30
23633;DHT22;11993;48.748;9.166;2022-10-23T13:32:09;27.20;43.50
23633;DHT22;11993;48.748;9.166;2022-10-23T13:34:34;26.80;44.60
23633;DHT22;11993;48.748;9.166;2022-10-23T13:37:03;26.50;46.10
23633;DHT22;11993;48.748;9.166;2022-10-23T13:39:44;26.30;46.40
23633;DHT22;11993;48.748;9.166;2022-10-23T13:42:12;26.50;45.80
23633;DHT22;11993;48.748;9.166;2022-10-23T13:44:39;26.30;45.80
23633;DHT22;11993;48.748;9.166;2022-10-23T13:47:05;25.80;46.40
23633;DHT22;11993;48.748;9.166;2022-10-23T13:49:33;25.50;47.40
23633;DHT22;11993;48.748;9.166;2022-10-23T13:51:59;25.10;48.30
23633;DHT22;11993;48.748;9.166;2022-10-23T13:54:26;24.90;48.40
23633;DHT22;11993;48.748;9.166;2022-10-23T13:56:53;24.50;50.00
23633;DHT22;11993;48.748;9.166;2022-10-23T13:59:19;24.30;50.50
23633;DHT22;11993;48.748;9.166;2022-10-23T14:01:46;24.00;50.60
23633;DHT22;11993;48.748;9.166;2022-10-23T14:04:15;23.70;51.40
23633;DHT22;11993;48.748;9.166;2022-10-23T14:06:41;23.40;52.70
23633;DHT22;11993;48.748;9.166;2022-10-23T14:09:11;23.20;53.00
23633;DHT22;11993;48.748;9.166;2022-10-23T14:11:37;23.20;53.60
23633;DHT22;11993;48.748;9.166;2022-10-23T14:14:03;23.00;54.10
23633;DHT22;11993;48.748;9.166;2022-10-23T14:16:28;22.80;54.60
23633;DHT22;11993;48.748;9.166;2022-10-23T14:18:54;22.80;55.40
23633;DHT22;11993;48.748;9.166;2022-10-23T14:21:21;22.50;56.90
23633;DHT22;11993;48.748;9.166;2022-10-23T14:23:48;22.30;57.90
23633;DHT22;11993;48.748;9.166;2022-10-23T14:26:16;22.10;59.10
23633;DHT22;11993;48.748;9.166;2022-10-23T14:28:42;21.80;60.40
23633;DHT22;11993;48.748;9.166;2022-10-23T14:31:11;21.80;60.70
23633;DHT22;11993;48.748;9.166;2022-10-23T14:33:37;21.70;60.90
23633;DHT22;11993;48.748;9.166;2022-10-23T14:36:03;21.70;60.70
23633;DHT22;11993;48.748;9.166;2022-10-23T14:38:29;21.70;60.90
23633;DHT22;11993;48.748;9.166;2022-10-23T14:40:54;21.50;61.60
23633;DHT22;11993;48.748;9.166;2022-10-23T14:43:21;21.30;62.70
23633;DHT22;11993;48.748;9.166;2022-10-23T14:45:47;21.30;63.20
23633;DHT22;11993;48.748;9.166;2022-10-23T14:48:12;21.10;63.60
23633;DHT22;11993;48.748;9.166;2022-10-23T14:50:42;21.10;64.30
23633;DHT22;11993;48.748;9.166;2022-10-23T14:53:08;21.00;65.00
23633;DHT22;11993;48.748;9.166;2022-10-23T14:55:34;20.80;65.70
23633;DHT22;11993;48.748;9.166;2022-10-23T14:58:00;20.70;66.20
23633;DHT22;11993;48.748;9.166;2022-10-23T15:00:25;20.60;66.90
23633;DHT22;11993;48.748;9.166;2022-10-23T15:02:51;20.60;66.90
23633;DHT22;11993;48.748;9.166;2022-10-23T15:05:17;20.70;67.10
23633;DHT22;11993;48.748;9.166;2022-10-23T15:07:43;20.70;67.50
23633;DHT22;11993;48.748;9.166;2022-10-23T15:10:08;20.70;67.70
23633;DHT22;11993;48.748;9.166;2022-10-23T15:12:35;20.80;67.60
23633;DHT22;11993;48.748;9.166;2022-10-23T15:15:01;20.80;67.40
23633;DHT22;11993;48.748;9.166;2022-10-23T15:17:30;20.90;67.30
23633;DHT22;11993;48.748;9.166;2022-10-23T15:19:59;20.70;67.80
23633;DHT22;11993;48.748;9.166;2022-10-23T15:22:25;20.80;67.70
23633;DHT22;11993;48.748;9.166;2022-10-23T15:24:50;20.90;67.40
23633;DHT22;11993;48.748;9.166;2022-10-23T15:27:16;20.80;67.50
23633;DHT22;11993;48.748;9.166;2022-10-23T15:29:42;20.70;67.30
23633;DHT22;11993;48.748;9.166;2022-10-23T15:32:09;20.70;67.60
23633;DHT22;11993;48.748;9.166;2022-10-23T15:34:35;20.50;67.80
23633;DHT22;11993;48.748;9.166;2022-10-23T15:37:02;20.50;67.90
23633;DHT22;11993;48.748;9.166;2022-10-23T15:39:29;20.40;68.00
23633;DHT22;11993;48.748;9.166;2022-10-23T15:41:58;20.40;68.00
23633;DHT22;11993;48.748;9.166;2022-10-23T15:44:26;20.30;68.40
23633;DHT22;11993;48.748;9.166;2022-10-23T15:46:51;20.20;68.70
23633;DHT22;11993;48.748;9.166;2022-10-23T15:49:18;20.10;69.40
23633;DHT22;11993;48.748;9.166;2022-10-23T15:51:45;20.00;69.40
23633;DHT22;11993;48.748;9.166;2022-10-23T15:54:13;19.90;69.50
23633;DHT22;11993;48.748;9.166;2022-10-23T15:56:42;19.80;69.90
23633;DHT22;11993;48.748;9.166;2022-10-23T15:59:07;19.70;70.40
23633;DHT22;11993;48.748;9.166;2022-10-23T16:01:33;19.50;71.30
23633;DHT22;11993;48.748;9.166;2022-10-23T16:03:58;19.50;71.10
23633;DHT22;11993;48.748;9.166;2022-10-23T16:06:24;19.40;71.10
23633;DHT22;11993;48.748;9.166;2022-10-23T16:08:49;19.30;71.30
23633;DHT22;11993;48.748;9.166;2022-10-23T16:11:23;19.40;71.10
23633;DHT22;11993;48.748;9.166;2022-10-23T16:13:49;19.40;70.80
23633;DHT22;11993;48.748;9.166;2022-10-23T16:16:16;19.30;70.90
23633;DHT22;11993;48.748;9.166;2022-10-23T16:18:42;19.20;70.90
23633;DHT22;11993;48.748;9.166;2022-10-23T16:21:25;19.20;71.50
23633;DHT22;11993;48.748;9.166;2022-10-23T16:23:52;19.10;72.00
23633;DHT22;11993;48.748;9.166;2022-10-23T16:26:19;19.00;72.20
23633;DHT22;11993;48.748;9.166;2022-10-23T16:28:45;19.00;72.40
23633;DHT22;11993;48.748;9.166;2022-10-23T16:31:14;18.90;72.70
23633;DHT22;11993;48.748;9.166;2022-10-23T16:33:39;18.80;72.90
23633;DHT22;11993;48.748;9.166;2022-10-23T16:36:07;18.70;73.20
23633;DHT22;11993;48.748;9.166;2022-10-23T16:38:33;18.70;73.10
23633;DHT22;11993;48.748;9.166;2022-10-23T16:40:58;18.70;73.00
23633;DHT22;11993;48.748;9.166;2022-10-23T16:43:25;18.80;72.90
23633;DHT22;11993;48.748;9.166;2022-10-23T16:46:11;18.80;72.80
23633;DHT22;11993;48.748;9.166;2022-10-23T16:48:37;18.70;72.50
23633;DHT22;11993;48.748;9.166;2022-10-23T16:51:08;18.70;72.30
23633;DHT22;11993;48.748;9.166;2022-10-23T16:53:34;18.80;71.80
23633;DHT22;11993;48.748;9.166;2022-10-23T16:56:01;18.80;71.60
23633;DHT22;11993;48.748;9.166;2022-10-23T16:58:27;18.90;71.50
23633;DHT22;11993;48.748;9.166;2022-10-23T17:01:05;18.80;71.10
23633;DHT22;11993;48.748;9.166;2022-10-23T17:03:36;18.80;70.90
23633;DHT22;11993;48.748;9.166;2022-10-23T17:06:04;18.80;70.90
23633;DHT22;11993;48.748;9.166;2022-10-23T17:08:31;18.80;71.00
23633;DHT22;11993;48.748;9.166;2022-10-23T17:11:15;18.80;71.00
23633;DHT22;11993;48.748;9.166;2022-10-23T17:13:47;18.70;71.00
23633;DHT22;11993;48.748;9.166;2022-10-23T17:16:19;18.70;71.30
23633;DHT22;11993;48.748;9.166;2022-10-23T17:18:45;18.60;71.70
23633;DHT22;11993;48.748;9.166;2022-10-23T17:21:12;18.70;71.60